Time;durP1;ratioP1;P1;durP2;ratioP2;P2;SDS_P1;SDS_P2;PMS_P1;PMS_P2;Temp;Humidity;BMP_temperature;BMP_pressure;BME280_temperature;BME280_humidity;BME280_pressure;Samples;Min_cycle;Max_cycle;Signal;HPM_P1;HPM_P2
2023/12/17 00:02:10;;;;;;;14.48;6.68;;;11.30;99.90;;;;;;4905200;29;20378;-91
2023/12/17 00:04:35;;;;;;;14.98;6.70;;;11.10;99.90;;;;;;4915595;29;20075;-91
2023/12/17 00:07:01;;;;;;;14.75;6.47;;;11.30;99.90;;;;;;4923991;29;20039;-89
2023/12/17 00:09:32;;;;;;;12.82;6.38;;;11.00;99.90;;;;;;4907162;29;20059;-89
2023/12/17 00:11:58;;;;;;;15.23;6.55;;;10.70;99.90;;;;;;4904008;29;20100;-88
2023/12/17 00:14:45;;;;;;;15.13;6.57;;;9.90;99.90;;;;;;4903052;29;20143;-90
2023/12/17 00:17:27;;;;;;;13.60;6.20;;;11.10;99.90;;;;;;4904371;29;20044;-88
2023/12/17 00:19:53;;;;;;;14.30;6.90;;;9.10;99.90;;;;;;4903525;29;20052;-89
2023/12/17 00:22:18;;;;;;;13.85;6.43;;;11.30;99.90;;;;;;4907241;29;20396;-89
2023/12/17 00:24:44;;;;;;;13.85;6.45;;;11.00;99.90;;;;;;4907583;29;20048;-88
2023/12/17 00:27:14;;;;;;;13.73;6.22;;;9.80;99.90;;;;;;4904381;29;20050;-91
2023/12/17 00:29:49;;;;;;;14.32;6.65;;;10.80;99.90;;;;;;4902313;29;20048;-90
2023/12/17 00:32:27;;;;;;;13.60;6.88;;;9.80;99.90;;;;;;4904503;29;20054;-92
2023/12/17 00:34:52;;;;;;;14.15;6.32;;;9.80;99.90;;;;;;4901873;29;20087;-91
2023/12/17 00:37:33;;;;;;;15.10;6.22;;;10.40;99.90;;;;;;4902188;29;20417;-89
2023/12/17 00:39:59;;;;;;;14.93;6.63;;;10.40;99.90;;;;;;4901548;29;20055;-90
2023/12/17 00:42:40;;;;;;;15.60;6.60;;;11.00;99.90;;;;;;4914419;29;20060;-91
2023/12/17 00:45:14;;;;;;;14.18;6.45;;;10.90;99.90;;;;;;4901516;29;20055;-91
2023/12/17 00:47:40;;;;;;;13.80;6.13;;;9.80;99.90;;;;;;4901465;29;20044;-91
2023/12/17 00:50:06;;;;;;;15.73;6.38;;;11.40;99.90;;;;;;4901919;29;20056;-92
2023/12/17 00:52:32;;;;;;;15.25;6.60;;;9.80;99.90;;;;;;4902247;29;20486;-91
2023/12/17 00:55:01;;;;;;;15.60;6.75;;;10.50;99.90;;;;;;4901381;29;20047;-91
2023/12/17 00:57:26;;;;;;;12.15;5.70;;;9.90;99.90;;;;;;4901910;29;20072;-92
2023/12/17 01:00:12;;;;;;;14.23;6.38;;;11.30;99.90;;;;;;4902473;29;20050;-89
2023/12/17 01:02:37;;;;;;;16.75;6.63;;;10.50;99.90;;;;;;4901182;29;20076;-88
2023/12/17 01:05:03;;;;;;;12.90;6.45;;;11.00;99.90;;;;;;4901877;29;20135;-90
2023/12/17 01:07:29;;;;;;;14.02;6.45;;;9.40;99.90;;;;;;4902183;29;20492;-89
2023/12/17 01:09:55;;;;;;;12.82;6.57;;;11.50;99.90;;;;;;4900692;29;20080;-88
2023/12/17 01:12:21;;;;;;;16.40;6.25;;;11.20;99.90;;;;;;4902277;29;20112;-88
2023/12/17 01:14:46;;;;;;;12.73;6.13;;;11.10;99.90;;;;;;4901634;29;20048;-88
2023/12/17 01:17:12;;;;;;;14.55;6.75;;;11.30;99.90;;;;;;4900620;29;20048;-88
2023/12/17 01:20:08;;;;;;;13.20;6.07;;;9.90;99.90;;;;;;4901650;29;20492;-88
2023/12/17 01:22:34;;;;;;;13.00;6.40;;;10.80;99.90;;;;;;4901714;29;20044;-92
2023/12/17 01:25:00;;;;;;;16.07;6.40;;;11.20;99.90;;;;;;4900415;29;20059;-91
2023/12/17 01:27:34;;;;;;;12.40;6.07;;;9.80;99.90;;;;;;4902784;29;20048;-91
2023/12/17 01:30:00;;;;;;;17.00;7.03;;;10.90;99.90;;;;;;4904910;29;20056;-92
2023/12/17 01:32:25;;;;;;;14.00;6.33;;;10.80;99.90;;;;;;4902556;29;20385;-91
2023/12/17 01:34:54;;;;;;;15.20;6.43;;;11.20;99.90;;;;;;4902349;29;20048;-92
2023/12/17 01:37:20;;;;;;;18.08;6.45;;;11.20;99.90;;;;;;4905391;29;20054;-90
2023/12/17 01:39:45;;;;;;;15.30;6.85;;;9.80;99.90;;;;;;4900744;29;20048;-91
2023/12/17 01:42:11;;;;;;;13.95;6.50;;;10.80;99.90;;;;;;4900514;29;20064;-91
2023/12/17 01:44:37;;;;;;;13.60;6.38;;;11.30;99.90;;;;;;4899909;29;20385;-91
2023/12/17 01:47:03;;;;;;;15.38;6.90;;;10.70;99.90;;;;;;4898244;29;20090;-90
2023/12/17 01:49:28;;;;;;;17.08;7.38;;;9.80;99.90;;;;;;4898360;29;20044;-89
2023/12/17 01:52:00;;;;;;;15.57;6.70;;;11.00;99.90;;;;;;4899850;29;20043;-91
2023/12/17 01:54:26;;;;;;;14.63;6.35;;;11.00;99.90;;;;;;4900406;29;20096;-91
2023/12/17 01:56:55;;;;;;;16.25;7.32;;;11.10;99.90;;;;;;4899966;29;20048;-91
2023/12/17 01:59:22;;;;;;;14.20;7.05;;;11.00;99.90;;;;;;4899586;29;20048;-89
2023/12/17 02:01:48;;;;;;;17.40;7.30;;;9.90;99.90;;;;;;4900730;29;20108;-91
2023/12/17 02:04:23;;;;;;;18.42;7.35;;;11.50;99.90;;;;;;4899452;29;20083;-91
2023/12/17 02:06:50;;;;;;;14.32;7.05;;;9.80;99.90;;;;;;4899781;29;20131;-91
2023/12/17 02:09:41;;;;;;;15.55;6.68;;;11.00;99.90;;;;;;4899059;29;20082;-91
2023/12/17 02:12:26;;;;;;;16.27;6.78;;;9.90;99.90;;;;;;4898748;29;20091;-90
2023/12/17 02:14:57;;;;;;;18.38;7.97;;;10.00;99.90;;;;;;4899838;29;20496;-90
2023/12/17 02:17:31;;;;;;;14.10;7.60;;;11.20;99.90;;;;;;4899311;29;20338;-87
2023/12/17 02:19:59;;;;;;;17.38;7.07;;;10.90;99.90;;;;;;4915619;29;20511;-88
2023/12/17 02:22:29;;;;;;;14.00;7.28;;;11.00;99.90;;;;;;4899732;29;20096;-88
2023/12/17 02:24:55;;;;;;;15.30;7.18;;;9.60;99.90;;;;;;4899956;29;20127;-88
2023/12/17 02:27:22;;;;;;;15.38;7.18;;;9.50;99.90;;;;;;4899422;29;20135;-88
2023/12/17 02:29:48;;;;;;;15.73;7.05;;;11.10;99.90;;;;;;4900834;29;20044;-88
2023/12/17 02:32:15;;;;;;;15.43;6.90;;;10.20;99.90;;;;;;4902243;29;20138;-89
2023/12/17 02:34:40;;;;;;;16.33;7.55;;;11.20;99.90;;;;;;4897709;29;20075;-88
2023/12/17 02:37:06;;;;;;;18.63;7.40;;;11.10;99.90;;;;;;4899407;29;20444;-88
2023/12/17 02:39:38;;;;;;;15.35;7.40;;;10.50;99.90;;;;;;4902136;29;20134;-88
2023/12/17 02:42:19;;;;;;;15.43;7.22;;;11.30;99.90;;;;;;4900292;29;20036;-87
2023/12/17 02:44:48;;;;;;;17.13;7.60;;;10.90;99.90;;;;;;4899333;29;20086;-87
2023/12/17 02:47:23;;;;;;;19.65;7.93;;;11.00;99.90;;;;;;4899963;29;20087;-87
2023/12/17 02:50:04;;;;;;;15.93;7.00;;;9.70;99.90;;;;;;4899982;29;20070;-88
2023/12/17 02:52:29;;;;;;;16.77;7.15;;;9.70;99.90;;;;;;4899506;29;20052;-88
2023/12/17 02:54:55;;;;;;;16.58;6.93;;;11.10;99.90;;;;;;4900513;29;20043;-87
2023/12/17 02:57:25;;;;;;;16.35;7.22;;;11.10;99.90;;;;;;4901849;29;20040;-87
2023/12/17 02:59:54;;;;;;;18.48;7.03;;;9.60;99.90;;;;;;4899133;29;20492;-87
2023/12/17 03:02:25;;;;;;;16.20;7.93;;;11.10;99.90;;;;;;4898203;29;20059;-88
2023/12/17 03:04:51;;;;;;;14.65;7.30;;;11.00;99.90;;;;;;4896569;29;20059;-90
2023/12/17 03:07:18;;;;;;;17.42;7.40;;;9.80;99.90;;;;;;4921922;29;20075;-87
2023/12/17 03:13:31;;;;;;;14.80;7.35;;;9.90;99.90;;;;;;4916322;29;20043;-88
2023/12/17 03:15:57;;;;;;;15.77;7.18;;;9.80;99.90;;;;;;4898212;29;20048;-89
2023/12/17 03:22:58;;;;;;;14.82;6.80;;;9.90;99.90;;;;;;4858693;29;20101;-90
2023/12/17 03:25:25;;;;;;;16.95;6.88;;;10.00;99.90;;;;;;4857741;29;20048;-88
2023/12/17 03:27:51;;;;;;;16.23;7.65;;;11.40;99.90;;;;;;4900284;29;20044;-88
2023/12/17 03:30:17;;;;;;;13.88;6.90;;;10.00;99.90;;;;;;4899606;29;20051;-89
2023/12/17 03:32:48;;;;;;;15.82;7.45;;;11.00;99.90;;;;;;4896678;29;20064;-89
2023/12/17 03:35:14;;;;;;;20.42;7.35;;;11.40;99.90;;;;;;4900706;29;20507;-89
2023/12/17 03:37:40;;;;;;;19.17;7.25;;;11.00;99.90;;;;;;4900138;29;20048;-88
2023/12/17 03:40:09;;;;;;;16.45;7.60;;;11.30;99.90;;;;;;4900301;29;20066;-87
2023/12/17 03:42:35;;;;;;;17.33;7.75;;;9.90;99.90;;;;;;4902031;29;20064;-89
2023/12/17 03:45:01;;;;;;;17.38;8.13;;;10.00;99.90;;;;;;4901457;29;20055;-88
2023/12/17 03:47:46;;;;;;;15.80;7.63;;;9.90;99.90;;;;;;4901065;29;20048;-89
2023/12/17 03:50:26;;;;;;;14.88;7.30;;;10.70;99.90;;;;;;4898831;29;20115;-89
2023/12/17 03:52:52;;;;;;;17.50;7.30;;;9.80;99.90;;;;;;4897884;29;20140;-89
2023/12/17 03:55:24;;;;;;;18.35;8.13;;;10.90;99.90;;;;;;4898879;29;20126;-89
2023/12/17 03:57:50;;;;;;;16.33;8.10;;;8.80;99.90;;;;;;4899120;29;20048;-89
2023/12/17 04:00:15;;;;;;;15.97;7.67;;;11.30;99.90;;;;;;4899176;29;20531;-90
2023/12/17 04:02:41;;;;;;;14.60;6.80;;;9.80;99.90;;;;;;4898759;29;20059;-90
2023/12/17 04:05:08;;;;;;;16.23;7.57;;;10.60;99.90;;;;;;4900218;29;20056;-88
2023/12/17 04:07:34;;;;;;;18.23;8.17;;;11.00;99.90;;;;;;4903203;29;20047;-89
2023/12/17 04:10:01;;;;;;;15.33;8.10;;;9.70;99.90;;;;;;4902371;29;20413;-90
2023/12/17 04:12:42;;;;;;;16.45;9.45;;;11.10;99.90;;;;;;4883919;29;20049;-90
2023/12/17 04:15:22;;;;;;;20.75;8.60;;;10.60;99.90;;;;;;4885042;29;20047;-89
2023/12/17 04:17:49;;;;;;;16.02;8.15;;;9.90;99.90;;;;;;4897914;29;20052;-91
2023/12/17 04:20:32;;;;;;;27.27;16.10;;;11.10;99.90;;;;;;4884160;29;20109;-88
2023/12/17 04:23:00;;;;;;;18.40;8.85;;;9.80;99.90;;;;;;4902364;29;20052;-88
2023/12/17 04:25:26;;;;;;;25.92;14.90;;;11.10;99.90;;;;;;4902458;29;20044;-90
2023/12/17 04:27:52;;;;;;;17.77;11.40;;;10.70;99.90;;;;;;4901586;29;20048;-89
2023/12/17 04:30:26;;;;;;;17.27;10.10;;;10.40;99.90;;;;;;4902557;29;20040;-89
2023/12/17 04:33:01;;;;;;;18.95;8.45;;;11.30;99.90;;;;;;4903664;29;20083;-88
2023/12/17 04:35:30;;;;;;;18.30;8.95;;;11.20;99.90;;;;;;4905488;29;20040;-90
2023/12/17 04:37:56;;;;;;;17.10;8.27;;;10.30;99.90;;;;;;4905418;29;20531;-88
2023/12/17 04:40:22;;;;;;;15.95;8.48;;;10.90;99.90;;;;;;4904608;29;20048;-89
2023/12/17 04:42:47;;;;;;;15.30;7.28;;;9.00;99.90;;;;;;4905095;29;20538;-89
2023/12/17 04:45:13;;;;;;;14.95;7.03;;;9.60;99.90;;;;;;4901631;29;20052;-88
2023/12/17 04:47:39;;;;;;;14.13;7.70;;;9.70;99.90;;;;;;4902899;29;20044;-88
2023/12/17 04:50:05;;;;;;;16.23;7.27;;;11.00;99.90;;;;;;4901723;29;20052;-89
2023/12/17 04:52:31;;;;;;;16.75;7.95;;;9.70;99.90;;;;;;4901953;29;20076;-87
2023/12/17 04:54:56;;;;;;;18.98;8.82;;;11.00;99.90;;;;;;4901278;29;20476;-88
2023/12/17 04:57:22;;;;;;;18.48;8.38;;;11.10;99.90;;;;;;4901825;29;20044;-89
2023/12/17 04:59:48;;;;;;;18.05;6.38;;;10.80;99.90;;;;;;4901053;29;20107;-88
2023/12/17 05:02:13;;;;;;;19.05;9.30;;;10.90;99.90;;;;;;4887927;29;20057;-89
2023/12/17 05:04:39;;;;;;;17.55;9.32;;;10.10;99.90;;;;;;4900985;29;20044;-89
2023/12/17 05:07:04;;;;;;;20.08;8.82;;;10.30;99.90;;;;;;4900444;29;20048;-90
2023/12/17 05:09:30;;;;;;;17.50;9.25;;;9.70;99.90;;;;;;4900095;29;20056;-89
2023/12/17 05:11:56;;;;;;;18.20;9.32;;;9.70;99.90;;;;;;4900666;29;20052;-89
2023/12/17 05:14:22;;;;;;;17.35;8.65;;;9.70;99.90;;;;;;4901038;29;20048;-89
2023/12/17 05:16:48;;;;;;;17.88;8.10;;;11.00;99.90;;;;;;4903148;29;20048;-89
2023/12/17 05:19:13;;;;;;;15.07;7.93;;;11.00;99.90;;;;;;4903626;29;20521;-89
2023/12/17 05:21:39;;;;;;;14.57;7.80;;;9.50;99.90;;;;;;4905277;29;20139;-90
2023/12/17 05:24:05;;;;;;;16.80;8.30;;;10.50;99.90;;;;;;4901209;29;20375;-90
2023/12/17 05:26:30;;;;;;;17.80;8.80;;;9.70;99.90;;;;;;4901061;29;20040;-89
2023/12/17 05:28:56;;;;;;;16.97;8.80;;;11.00;99.90;;;;;;4901869;29;20059;-89
2023/12/17 05:31:22;;;;;;;15.87;8.73;;;9.70;99.90;;;;;;4899846;29;20052;-90
2023/12/17 05:33:49;;;;;;;18.17;8.47;;;11.00;99.90;;;;;;4900487;29;20063;-89
2023/12/17 05:36:14;;;;;;;15.10;8.73;;;10.80;99.90;;;;;;4900020;29;20048;-88
2023/12/17 05:38:40;;;;;;;18.00;8.80;;;9.60;99.90;;;;;;4901790;29;20052;-89
2023/12/17 05:41:06;;;;;;;16.67;9.10;;;10.40;99.90;;;;;;4902626;29;20059;-90
2023/12/17 05:43:31;;;;;;;15.90;8.57;;;10.70;99.90;;;;;;4902077;29;20519;-89
2023/12/17 05:45:57;;;;;;;16.47;8.33;;;10.90;99.90;;;;;;4900800;29;20530;-89
2023/12/17 05:48:31;;;;;;;16.47;8.30;;;9.90;99.90;;;;;;4900865;29;20049;-89
2023/12/17 05:50:57;;;;;;;14.77;8.03;;;11.20;99.90;;;;;;4902387;29;20115;-90
2023/12/17 05:53:22;;;;;;;16.60;7.93;;;10.80;99.90;;;;;;4901476;29;20497;-91
2023/12/17 05:55:48;;;;;;;13.67;7.93;;;10.80;99.90;;;;;;4900133;29;20048;-89
2023/12/17 05:58:44;;;;;;;16.50;8.27;;;9.50;99.90;;;;;;4899338;29;20349;-90
2023/12/17 06:01:10;;;;;;;14.00;8.10;;;9.40;99.90;;;;;;4899605;29;20055;-91
2023/12/17 06:03:35;;;;;;;15.77;8.10;;;11.00;99.90;;;;;;4899645;29;20048;-90
2023/12/17 06:06:07;;;;;;;16.83;8.05;;;8.90;99.90;;;;;;4900327;29;20048;-89
2023/12/17 06:08:33;;;;;;;15.82;8.77;;;9.50;99.90;;;;;;4917742;29;20048;-90
2023/12/17 06:11:16;;;;;;;14.82;8.18;;;10.60;99.90;;;;;;4908272;29;20063;-91
2023/12/17 06:13:42;;;;;;;14.57;6.88;;;10.20;99.90;;;;;;4923773;29;20028;-91
2023/12/17 06:16:21;;;;;;;13.00;7.22;;;10.10;99.90;;;;;;4905452;29;20044;-92
2023/12/17 06:18:47;;;;;;;17.65;7.15;;;11.00;99.90;;;;;;4902048;29;20445;-91
2023/12/17 06:21:24;;;;;;;14.52;7.07;;;11.00;99.90;;;;;;4902950;29;20063;-91
2023/12/17 06:23:50;;;;;;;16.33;7.32;;;10.60;99.90;;;;;;4900971;29;20111;-90
2023/12/17 06:26:19;;;;;;;14.65;7.50;;;10.70;99.90;;;;;;4901818;29;20059;-90
2023/12/17 06:28:45;;;;;;;13.52;6.90;;;10.60;99.90;;;;;;4899507;29;20048;-89
2023/12/17 06:31:14;;;;;;;14.50;7.63;;;9.40;99.90;;;;;;4899952;29;20375;-91
2023/12/17 06:33:43;;;;;;;14.00;7.10;;;10.50;99.90;;;;;;4898775;29;20056;-91
2023/12/17 06:36:15;;;;;;;15.73;7.07;;;10.00;99.90;;;;;;4898886;29;20055;-92
2023/12/17 06:38:41;;;;;;;14.45;7.88;;;9.50;99.90;;;;;;4898984;29;20405;-91
2023/12/17 06:41:10;;;;;;;14.17;7.53;;;10.40;99.90;;;;;;4897846;29;20114;-90
2023/12/17 06:43:44;;;;;;;13.98;7.53;;;10.30;99.90;;;;;;4902030;29;20558;-90
2023/12/17 06:46:15;;;;;;;14.00;8.20;;;10.70;99.90;;;;;;4904890;29;20598;-90
2023/12/17 06:48:41;;;;;;;15.25;7.78;;;11.00;99.90;;;;;;4899412;29;20450;-89
2023/12/17 06:51:33;;;;;;;14.95;7.30;;;10.90;99.90;;;;;;4899076;29;20059;-90
2023/12/17 06:54:02;;;;;;;14.73;8.07;;;8.50;99.90;;;;;;4916845;29;20059;-91
2023/12/17 06:56:30;;;;;;;14.98;7.95;;;10.70;99.90;;;;;;4901510;29;20047;-90
2023/12/17 06:58:56;;;;;;;16.23;7.97;;;10.80;99.90;;;;;;4899315;29;20083;-90
2023/12/17 07:01:22;;;;;;;13.70;6.85;;;9.30;99.90;;;;;;4898889;29;20098;-91
2023/12/17 07:04:03;;;;;;;13.73;7.55;;;8.90;99.90;;;;;;4899152;29;20063;-91
2023/12/17 07:06:32;;;;;;;13.93;7.23;;;;;;;;;;4899322;29;20052;-90
2023/12/17 07:08:57;;;;;;;16.07;8.50;;;9.30;99.90;;;;;;4896822;29;20100;-86
2023/12/17 07:11:23;;;;;;;19.17;7.83;;;9.20;99.90;;;;;;4899601;29;20056;-86
2023/12/17 07:13:49;;;;;;;14.37;7.63;;;10.80;99.90;;;;;;4916066;29;20437;-86
2023/12/17 07:16:24;;;;;;;13.60;7.63;;;9.30;99.90;;;;;;4914392;29;20037;-85
2023/12/17 07:18:50;;;;;;;15.52;7.30;;;10.90;99.90;;;;;;4895794;29;20079;-86
2023/12/17 07:21:16;;;;;;;13.02;7.57;;;10.10;99.90;;;;;;4897438;29;20036;-85
2023/12/17 07:23:42;;;;;;;15.18;8.10;;;10.80;99.90;;;;;;4897570;29;20405;-86
2023/12/17 07:26:08;;;;;;;14.38;6.93;;;9.70;99.90;;;;;;4915493;29;20041;-86
2023/12/17 07:28:33;;;;;;;16.38;7.97;;;10.50;99.90;;;;;;4895710;29;20044;-85
2023/12/17 07:31:14;;;;;;;16.13;8.68;;;10.80;99.90;;;;;;4898778;29;20055;-86
2023/12/17 07:33:40;;;;;;;15.73;8.38;;;10.50;99.90;;;;;;4898913;29;20067;-86
2023/12/17 07:36:06;;;;;;;17.25;8.88;;;10.40;99.90;;;;;;4898901;29;20084;-85
2023/12/17 07:38:33;;;;;;;18.40;9.35;;;9.20;99.90;;;;;;4902847;29;20056;-85
2023/12/17 07:40:59;;;;;;;16.17;7.03;;;9.10;99.90;;;;;;4902576;29;20040;-85
2023/12/17 07:43:30;;;;;;;16.17;7.70;;;10.20;99.90;;;;;;4901751;29;20523;-85
2023/12/17 07:46:09;;;;;;;15.57;6.95;;;10.90;99.90;;;;;;4903186;29;20056;-86
2023/12/17 07:48:56;;;;;;;15.18;7.38;;;10.30;99.90;;;;;;4903810;29;20055;-85
2023/12/17 07:51:38;;;;;;;17.53;7.13;;;9.40;99.90;;;;;;4903329;29;20055;-85
2023/12/17 07:54:06;;;;;;;15.57;6.65;;;9.30;99.90;;;;;;4899854;29;20496;-86
2023/12/17 07:56:41;;;;;;;18.02;8.05;;;8.40;99.90;;;;;;4902267;29;20040;-86
2023/12/17 07:59:13;;;;;;;14.80;5.78;;;8.10;99.90;;;;;;4902693;29;20091;-86
2023/12/17 08:01:39;;;;;;;14.55;5.78;;;10.70;99.90;;;;;;4902452;29;20040;-86
2023/12/17 08:04:09;;;;;;;14.05;5.40;;;8.10;99.90;;;;;;4901208;29;20055;-86
2023/12/17 08:06:53;;;;;;;11.88;4.32;;;9.30;99.90;;;;;;4899993;29;20048;-86
2023/12/17 08:09:46;;;;;;;11.75;4.60;;;9.10;99.90;;;;;;4902367;29;20381;-87
2023/12/17 08:12:14;;;;;;;16.10;7.32;;;9.40;99.90;;;;;;4901034;29;20083;-86
2023/12/17 08:15:05;;;;;;;11.73;5.18;;;9.80;99.90;;;;;;4902550;29;20048;-86
2023/12/17 08:17:41;;;;;;;12.40;4.50;;;9.60;99.90;;;;;;4902178;29;20048;-86
2023/12/17 08:20:07;;;;;;;12.18;4.75;;;10.70;99.90;;;;;;4901651;29;20075;-84
2023/12/17 08:22:35;;;;;;;11.52;3.97;;;9.80;99.90;;;;;;4902092;29;20052;-86
2023/12/17 08:25:16;;;;;;;11.50;3.78;;;10.20;99.90;;;;;;4901727;29;20123;-86
2023/12/17 08:27:42;;;;;;;14.70;4.80;;;9.90;99.90;;;;;;4891450;23;20075;-84
2023/12/17 08:30:28;;;;;;;13.88;5.10;;;10.80;99.90;;;;;;4864449;29;20501;-86
2023/12/17 08:33:03;;;;;;;15.27;6.05;;;10.10;99.90;;;;;;4863635;29;20155;-86
2023/12/17 08:35:45;;;;;;;14.68;5.38;;;8.80;99.90;;;;;;4879612;29;20053;-85
2023/12/17 08:38:56;;;;;;;12.90;4.90;;;10.60;99.90;;;;;;4864162;29;20398;-84
2023/12/17 08:41:33;;;;;;;13.07;4.57;;;9.20;99.90;;;;;;4863575;29;20061;-85
2023/12/17 08:44:20;;;;;;;12.13;5.15;;;10.80;99.90;;;;;;4864200;29;20045;-86
2023/12/17 08:46:49;;;;;;;13.77;5.40;;;10.30;99.90;;;;;;4906365;23;20130;-86
2023/12/17 08:49:15;;;;;;;16.52;5.00;;;9.20;99.90;;;;;;4900969;29;20048;-86
2023/12/17 08:51:50;;;;;;;13.85;5.28;;;10.20;99.90;;;;;;4900207;29;20195;-86
2023/12/17 08:54:28;;;;;;;13.85;4.93;;;10.40;99.90;;;;;;4902751;29;20048;-86
2023/12/17 08:57:09;;;;;;;11.70;4.85;;;10.00;99.90;;;;;;4901857;29;20044;-86
2023/12/17 08:59:56;;;;;;;14.75;5.57;;;10.50;99.90;;;;;;4901424;29;20070;-86
2023/12/17 09:02:25;;;;;;;13.88;5.10;;;8.30;99.90;;;;;;5109859;23;20044;-86
2023/12/17 09:05:43;;;;;;;13.90;5.30;;;9.30;99.90;;;;;;4883342;29;20056;-86
2023/12/17 09:08:33;;;;;;;13.18;5.35;;;9.20;99.90;;;;;;4881275;29;20052;-85
2023/12/17 09:11:15;;;;;;;14.75;5.78;;;9.20;99.90;;;;;;4882150;29;20128;-85
2023/12/17 09:13:41;;;;;;;13.23;5.18;;;9.30;99.90;;;;;;4883571;29;20178;-86
2023/12/17 09:16:07;;;;;;;13.75;6.05;;;9.20;99.90;;;;;;4881960;29;20485;-86
2023/12/17 09:18:47;;;;;;;15.63;6.63;;;9.30;99.90;;;;;;4887134;29;20081;-86
2023/12/17 09:21:13;;;;;;;14.65;6.40;;;10.70;99.90;;;;;;4897442;29;20056;-86
2023/12/17 09:23:41;;;;;;;15.73;6.65;;;10.40;99.90;;;;;;4882185;29;20040;-86
2023/12/17 09:26:19;;;;;;;18.00;7.97;;;10.10;99.90;;;;;;4882055;29;20049;-86
2023/12/17 09:29:05;;;;;;;19.98;8.15;;;10.50;99.90;;;;;;4881262;29;20092;-85
2023/12/17 09:31:31;;;;;;;17.95;8.00;;;8.80;99.90;;;;;;4882023;29;20451;-85
2023/12/17 09:33:57;;;;;;;19.98;8.93;;;10.50;99.90;;;;;;4882317;29;20041;-84
2023/12/17 09:36:48;;;;;;;18.92;8.68;;;8.60;99.90;;;;;;4881320;29;20056;-88
2023/12/17 09:39:27;;;;;;;19.75;9.10;;;9.50;99.90;;;;;;4878483;29;20057;-87
2023/12/17 09:42:08;;;;;;;20.15;9.23;;;10.80;99.90;;;;;;4863156;29;20045;-85
2023/12/17 09:44:50;;;;;;;19.95;9.18;;;9.40;99.90;;;;;;4863270;29;20045;-85
2023/12/17 09:47:31;;;;;;;21.17;9.75;;;10.80;99.90;;;;;;4863132;29;20080;-85
2023/12/17 09:49:56;;;;;;;22.20;9.25;;;10.70;99.90;;;;;;4862756;29;20049;-85
2023/12/17 09:52:28;;;;;;;22.33;10.43;;;10.90;99.90;;;;;;4863878;29;20100;-85
2023/12/17 09:55:05;;;;;;;23.65;10.48;;;10.90;99.90;;;;;;4863485;29;20052;-87
2023/12/17 09:57:30;;;;;;;24.60;11.50;;;9.40;99.90;;;;;;4862857;29;20048;-86
2023/12/17 10:00:10;;;;;;;23.70;11.70;;;10.60;99.90;;;;;;4863363;29;20052;-84
2023/12/17 10:02:36;;;;;;;24.55;11.30;;;9.40;99.90;;;;;;4862082;29;20420;-84
2023/12/17 10:07:57;;;;;;;24.08;10.90;;;9.40;99.90;;;;;;4866028;29;20057;-83
2023/12/17 10:10:41;;;;;;;24.97;11.30;;;10.50;99.90;;;;;;4882119;29;20075;-82
2023/12/17 10:13:08;;;;;;;28.50;12.37;;;9.50;99.90;;;;;;4895575;23;20080;-81
2023/12/17 10:18:02;;;;;;;28.38;11.95;;;9.40;99.90;;;;;;5093387;23;20048;-84
2023/12/17 10:20:28;;;;;;;24.73;11.98;;;9.40;99.90;;;;;;4899212;29;20056;-85
2023/12/17 10:22:59;;;;;;;24.98;11.35;;;10.40;99.90;;;;;;4899277;29;20127;-84
2023/12/17 10:25:31;;;;;;;24.50;12.05;;;9.40;99.90;;;;;;4898886;29;20056;-84
2023/12/17 10:28:51;;;;;;;23.45;11.02;;;10.80;99.90;;;;;;4901403;29;20096;-84
2023/12/17 10:31:18;;;;;;;23.30;10.77;;;8.60;99.90;;;;;;5296453;23;20113;-82
2023/12/17 10:37:06;;;;;;;22.23;10.27;;;10.70;99.90;;;;;;4878535;29;20088;-82
2023/12/17 10:43:25;;;;;;;20.90;9.23;;;9.30;99.90;;;;;;4897594;23;20111;-83
2023/12/17 10:45:52;;;;;;;18.70;8.95;;;8.50;99.90;;;;;;4899036;29;20091;-84
2023/12/17 10:48:24;;;;;;;20.25;9.65;;;10.40;99.90;;;;;;4896640;29;20044;-83
2023/12/17 10:50:57;;;;;;;21.83;9.70;;;9.30;99.90;;;;;;4894564;29;20060;-84
2023/12/17 10:53:23;;;;;;;18.52;8.65;;;9.30;99.90;;;;;;4899165;29;20044;-84
2023/12/17 10:55:51;;;;;;;16.65;8.23;;;9.70;99.90;;;;;;4898749;29;20058;-83
2023/12/17 10:58:21;;;;;;;22.90;12.25;;;9.20;99.90;;;;;;4894391;29;20058;-83
2023/12/17 11:00:49;;;;;;;17.98;8.25;;;10.50;99.90;;;;;;4898313;29;20056;-82
2023/12/17 11:03:18;;;;;;;18.98;8.43;;;10.30;99.90;;;;;;4898201;29;20449;-83
2023/12/17 11:06:07;;;;;;;19.02;8.27;;;10.20;99.90;;;;;;4898667;29;20039;-84
2023/12/17 11:08:46;;;;;;;17.90;8.38;;;8.40;99.90;;;;;;4912856;29;20044;-83
2023/12/17 11:11:20;;;;;;;16.63;8.27;;;9.20;99.90;;;;;;4897688;29;20783;-83
2023/12/17 11:13:49;;;;;;;18.45;8.18;;;10.70;99.90;;;;;;4900683;29;20044;-83
2023/12/17 11:16:24;;;;;;;18.53;8.40;;;10.80;99.90;;;;;;4903105;29;20401;-83
2023/12/17 11:19:12;;;;;;;19.73;9.25;;;9.30;99.90;;;;;;4914208;29;20135;-83
2023/12/17 11:21:54;;;;;;;17.40;8.47;;;11.00;99.90;;;;;;4901666;29;20389;-83
2023/12/17 11:24:36;;;;;;;18.23;9.63;;;10.00;99.90;;;;;;4903054;29;20090;-83
2023/12/17 11:27:02;;;;;;;16.92;8.50;;;9.20;99.90;;;;;;4901993;29;20119;-83
2023/12/17 11:29:45;;;;;;;19.50;9.10;;;9.30;99.90;;;;;;4951393;23;20076;-84
2023/12/17 11:32:12;;;;;;;22.50;9.38;;;9.20;99.90;;;;;;4882865;29;20513;-83
2023/12/17 11:34:38;;;;;;;22.17;10.73;;;9.40;99.90;;;;;;4883877;29;20404;-82
2023/12/17 11:37:04;;;;;;;22.00;10.70;;;9.30;99.90;;;;;;4882735;29;20147;-83
2023/12/17 11:39:30;;;;;;;22.08;10.80;;;9.30;99.90;;;;;;4884339;29;20063;-83
2023/12/17 11:42:02;;;;;;;21.98;10.18;;;9.30;99.90;;;;;;4883110;29;20052;-83
2023/12/17 11:44:47;;;;;;;22.52;11.13;;;9.30;99.90;;;;;;4884255;29;20496;-83
2023/12/17 11:47:34;;;;;;;21.52;10.35;;;9.30;99.90;;;;;;4884569;29;20057;-83
2023/12/17 11:50:00;;;;;;;22.53;11.10;;;10.50;99.90;;;;;;4882961;29;20541;-84
2023/12/17 11:52:27;;;;;;;23.98;11.85;;;10.40;99.90;;;;;;4884217;29;20300;-84
2023/12/17 11:55:00;;;;;;;23.05;10.98;;;9.40;99.90;;;;;;4883899;29;20083;-85
2023/12/17 11:57:30;;;;;;;24.52;11.52;;;10.80;99.90;;;;;;4899891;29;20131;-83
2023/12/17 12:00:40;;;;;;;23.48;10.63;;;9.50;99.90;;;;;;4900397;29;20049;-84
2023/12/17 12:03:24;;;;;;;25.30;11.57;;;9.00;99.90;;;;;;4813877;29;20054;-84
2023/12/17 12:12:33;;;;;;;27.10;12.30;;;9.30;99.90;;;;;;4915390;23;20397;-84
2023/12/17 12:15:51;;;;;;;25.60;11.60;;;10.80;99.90;;;;;;4896291;29;20049;-84
2023/12/17 12:30:00;;;;;;;27.53;12.17;;;9.40;99.90;;;;;;4907108;29;20071;-85
2023/12/17 12:32:50;;;;;;;23.87;10.73;;;10.00;99.90;;;;;;4894749;29;20072;-85
2023/12/17 12:35:21;;;;;;;23.63;10.60;;;8.90;99.90;;;;;;4891257;29;20040;-85
2023/12/17 12:37:47;;;;;;;21.33;10.30;;;9.30;99.90;;;;;;4862943;29;20049;-85
2023/12/17 12:40:31;;;;;;;23.83;11.17;;;10.40;99.90;;;;;;4859233;29;20056;-83
2023/12/17 12:43:29;;;;;;;25.60;10.57;;;10.50;99.90;;;;;;4877833;29;20112;-84
2023/12/17 12:50:35;;;;;;;23.77;10.35;;;9.30;99.90;;;;;;4846200;29;20138;-85
2023/12/17 12:53:28;;;;;;;25.30;11.95;;;9.20;99.90;;;;;;4827306;29;20117;-83
2023/12/17 12:56:09;;;;;;;23.33;10.85;;;9.80;99.90;;;;;;5050088;23;20056;-83
2023/12/17 12:58:35;;;;;;;23.70;11.07;;;9.40;99.90;;;;;;4871878;29;20056;-84
2023/12/17 13:01:01;;;;;;;24.65;11.57;;;10.70;99.90;;;;;;4874883;29;20113;-84
2023/12/17 13:03:27;;;;;;;23.42;10.35;;;10.10;99.90;;;;;;4875450;29;20454;-84
2023/12/17 13:05:53;;;;;;;23.30;10.73;;;10.40;99.90;;;;;;4879128;29;20049;-85
2023/12/17 13:08:24;;;;;;;24.13;10.68;;;10.40;99.90;;;;;;4875610;29;20048;-85
2023/12/17 13:10:52;;;;;;;23.17;10.65;;;10.50;99.90;;;;;;4876596;29;20049;-85
2023/12/17 13:13:51;;;;;;;24.95;10.23;;;9.80;99.90;;;;;;4868650;29;20045;-84
2023/12/17 13:16:29;;;;;;;22.17;10.13;;;9.20;99.90;;;;;;4885894;29;20048;-85
2023/12/17 13:18:55;;;;;;;23.58;12.13;;;10.10;99.90;;;;;;4874951;29;20165;-84
2023/12/17 13:21:21;;;;;;;24.10;10.80;;;10.10;99.90;;;;;;4868294;29;20047;-84
2023/12/17 13:23:49;;;;;;;22.73;10.48;;;10.50;99.90;;;;;;4886451;29;20057;-87
2023/12/17 13:26:16;;;;;;;24.73;10.82;;;10.00;99.90;;;;;;4877102;29;20051;-86
2023/12/17 13:28:41;;;;;;;22.85;10.38;;;8.80;99.90;;;;;;4881353;29;20060;-86
2023/12/17 13:31:07;;;;;;;22.95;10.48;;;9.20;99.90;;;;;;4881765;29;20052;-86
2023/12/17 13:33:45;;;;;;;23.67;10.70;;;10.30;99.90;;;;;;4882566;29;20422;-87
2023/12/17 13:36:17;;;;;;;21.77;10.23;;;10.30;99.90;;;;;;4881394;29;20553;-86
2023/12/17 13:38:42;;;;;;;17.85;8.13;;;10.60;99.90;;;;;;4882510;29;20501;-87
2023/12/17 13:41:08;;;;;;;20.23;9.65;;;10.00;99.90;;;;;;4881693;29;20059;-87
2023/12/17 13:43:34;;;;;;;18.63;8.75;;;10.50;99.90;;;;;;4881876;29;20036;-86
2023/12/17 13:46:11;;;;;;;17.33;8.73;;;10.20;99.90;;;;;;4881912;29;20052;-86